Time;durP1;ratioP1;P1;durP2;ratioP2;P2;SDS_P1;SDS_P2;PMS_P1;PMS_P2;Temp;Humidity;BMP_temperature;BMP_pressure;BME280_temperature;BME280_humidity;BME280_pressure;Samples;Min_cycle;Max_cycle;Signal;HPM_P1;HPM_P2
2023/12/06 00:01:50;;;;;;;31.33;19.23;;;4.20;99.90;;;;;;5053086;28;20449;-63
2023/12/06 00:04:17;;;;;;;35.30;21.87;;;4.10;99.90;;;;;;5052635;28;20454;-63
2023/12/06 00:06:44;;;;;;;33.93;19.73;;;4.10;99.90;;;;;;5052804;28;20445;-63
2023/12/06 00:09:10;;;;;;;38.53;21.47;;;4.10;99.90;;;;;;5052677;28;20496;-63
2023/12/06 00:11:39;;;;;;;39.97;22.23;;;4.10;99.90;;;;;;5052790;28;20449;-64
2023/12/06 00:14:05;;;;;;;34.30;20.10;;;4.10;99.90;;;;;;5052400;28;21025;-63
2023/12/06 00:16:32;;;;;;;39.17;20.73;;;4.10;99.90;;;;;;5052824;28;20445;-63
2023/12/06 00:18:59;;;;;;;32.50;19.53;;;4.10;99.90;;;;;;5052360;28;20939;-63
2023/12/06 00:21:25;;;;;;;32.67;20.70;;;4.10;99.90;;;;;;5052388;28;20465;-63
2023/12/06 00:23:52;;;;;;;35.87;20.67;;;4.10;99.90;;;;;;5052778;28;20441;-63
2023/12/06 00:26:19;;;;;;;37.00;20.33;;;4.10;99.90;;;;;;5052635;28;20437;-63
2023/12/06 00:28:47;;;;;;;37.70;21.63;;;4.20;99.90;;;;;;5055261;28;20449;-63
2023/12/06 00:31:13;;;;;;;36.03;20.80;;;4.20;99.90;;;;;;5056033;28;20477;-63
2023/12/06 00:33:40;;;;;;;39.20;22.73;;;4.30;99.90;;;;;;5056133;28;20889;-63
2023/12/06 00:36:07;;;;;;;38.53;23.00;;;4.30;99.90;;;;;;5056117;28;20437;-63
2023/12/06 00:38:34;;;;;;;37.30;22.50;;;4.30;99.90;;;;;;5056081;28;20442;-63
2023/12/06 00:41:01;;;;;;;40.33;23.97;;;4.30;99.90;;;;;;5055824;28;20470;-63
2023/12/06 00:43:28;;;;;;;45.57;25.40;;;4.30;99.90;;;;;;5055834;28;20440;-63
2023/12/06 00:45:56;;;;;;;49.13;25.53;;;4.30;99.90;;;;;;5055927;28;20975;-64
2023/12/06 00:48:22;;;;;;;44.20;24.87;;;4.20;99.90;;;;;;5056401;28;20442;-63
2023/12/06 00:50:50;;;;;;;45.13;25.20;;;4.20;99.90;;;;;;5056133;28;20515;-62
2023/12/06 00:53:16;;;;;;;42.10;24.93;;;4.10;99.90;;;;;;5055621;28;20480;-63
2023/12/06 00:55:43;;;;;;;42.57;25.40;;;4.10;99.90;;;;;;5055671;28;20437;-63
2023/12/06 00:58:10;;;;;;;47.63;27.03;;;4.10;99.90;;;;;;5055427;28;20446;-63
2023/12/06 01:00:36;;;;;;;53.47;29.40;;;4.10;99.90;;;;;;5054560;28;20468;-63
2023/12/06 01:03:04;;;;;;;51.37;27.13;;;4.00;99.90;;;;;;5054939;28;20461;-63
2023/12/06 01:05:31;;;;;;;50.83;27.90;;;4.00;99.90;;;;;;5055301;28;20449;-63
2023/12/06 01:07:58;;;;;;;52.83;28.17;;;3.90;99.90;;;;;;5055337;28;20441;-63
2023/12/06 01:10:24;;;;;;;54.10;28.87;;;4.00;99.90;;;;;;5055339;28;20468;-63
2023/12/06 01:12:51;;;;;;;52.50;26.93;;;4.00;99.90;;;;;;5055175;28;20521;-63
2023/12/06 01:15:18;;;;;;;51.50;27.00;;;4.00;99.90;;;;;;5055070;28;20444;-63
2023/12/06 01:17:46;;;;;;;63.23;31.17;;;3.90;99.90;;;;;;5055025;28;20442;-63
2023/12/06 01:20:14;;;;;;;58.20;29.13;;;3.90;99.90;;;;;;5055095;28;20524;-63
2023/12/06 01:22:40;;;;;;;61.77;29.33;;;4.00;99.90;;;;;;5054955;28;20456;-63
2023/12/06 01:25:08;;;;;;;59.40;31.07;;;3.90;99.90;;;;;;5054953;28;20573;-63
2023/12/06 01:27:35;;;;;;;57.20;31.77;;;3.90;99.90;;;;;;5055008;28;20445;-63
2023/12/06 01:30:03;;;;;;;54.13;28.93;;;3.90;99.90;;;;;;5054735;28;20901;-63
2023/12/06 01:32:30;;;;;;;55.63;29.77;;;3.90;99.90;;;;;;5054929;28;20446;-63
2023/12/06 01:34:57;;;;;;;65.53;31.60;;;3.90;99.90;;;;;;5054755;28;20489;-63
2023/12/06 01:37:25;;;;;;;68.87;34.90;;;3.90;99.90;;;;;;5054697;28;20445;-63
2023/12/06 01:39:51;;;;;;;69.40;34.40;;;3.80;99.90;;;;;;5054703;28;20465;-64
2023/12/06 01:42:18;;;;;;;70.23;35.40;;;3.80;99.90;;;;;;5054440;28;20935;-63
2023/12/06 01:44:45;;;;;;;68.10;36.40;;;3.80;99.90;;;;;;5054650;28;20442;-63
2023/12/06 01:47:12;;;;;;;74.40;35.37;;;3.70;99.90;;;;;;5054446;28;20801;-63
2023/12/06 01:49:39;;;;;;;67.40;34.07;;;3.80;99.90;;;;;;5054459;28;20469;-63
2023/12/06 01:52:07;;;;;;;68.00;36.33;;;3.80;99.90;;;;;;5054489;28;20445;-63
2023/12/06 01:54:35;;;;;;;69.90;33.67;;;3.70;99.90;;;;;;5054082;28;20849;-63
2023/12/06 01:57:02;;;;;;;68.30;35.23;;;3.70;99.90;;;;;;5054101;28;20445;-63
2023/12/06 01:59:29;;;;;;;69.83;35.67;;;3.70;99.90;;;;;;5054296;28;20560;-63
2023/12/06 02:01:56;;;;;;;61.47;33.13;;;3.70;99.90;;;;;;5054416;28;20441;-63
2023/12/06 02:04:23;;;;;;;63.87;33.73;;;3.70;99.90;;;;;;5053931;28;20449;-63
2023/12/06 02:06:50;;;;;;;63.63;34.10;;;3.70;99.90;;;;;;5053997;28;20958;-64
2023/12/06 02:09:16;;;;;;;64.00;34.07;;;3.70;99.90;;;;;;5053962;28;20450;-64
2023/12/06 02:11:45;;;;;;;51.43;32.20;;;3.80;99.90;;;;;;5054207;28;20444;-63
2023/12/06 02:14:12;;;;;;;53.50;32.10;;;3.80;99.90;;;;;;5054115;28;20481;-63
2023/12/06 02:16:39;;;;;;;54.93;32.10;;;3.80;99.90;;;;;;5054078;28;20472;-63
2023/12/06 02:19:10;;;;;;;54.23;30.57;;;3.90;99.90;;;;;;5053864;28;20449;-64
2023/12/06 02:21:37;;;;;;;48.20;31.00;;;3.80;99.90;;;;;;5054730;28;20426;-64
2023/12/06 02:24:05;;;;;;;47.33;30.57;;;3.90;99.90;;;;;;5053936;28;20445;-64
2023/12/06 02:26:35;;;;;;;51.40;30.53;;;3.90;99.90;;;;;;5053985;28;20448;-63
2023/12/06 02:29:02;;;;;;;47.07;29.73;;;3.90;99.90;;;;;;5053562;28;20805;-64
2023/12/06 02:31:29;;;;;;;53.67;31.97;;;3.90;99.90;;;;;;5053840;28;20472;-64
2023/12/06 02:33:56;;;;;;;51.67;32.00;;;3.90;99.90;;;;;;5053552;28;20505;-64
2023/12/06 02:36:24;;;;;;;47.53;28.60;;;3.80;99.90;;;;;;5053700;28;20497;-64
2023/12/06 02:38:51;;;;;;;48.83;31.50;;;3.90;99.90;;;;;;5053652;28;20445;-63
2023/12/06 02:41:19;;;;;;;49.20;29.93;;;3.90;99.90;;;;;;5053530;28;20462;-63
2023/12/06 02:43:47;;;;;;;51.30;32.63;;;4.00;99.90;;;;;;5053402;28;21025;-64
2023/12/06 02:46:14;;;;;;;46.63;30.30;;;4.00;99.90;;;;;;5053968;28;20445;-64
2023/12/06 02:48:41;;;;;;;46.73;29.90;;;3.90;99.90;;;;;;5054869;28;20442;-63
2023/12/06 02:51:08;;;;;;;47.30;30.97;;;3.90;99.90;;;;;;5053780;28;20492;-63
2023/12/06 02:53:34;;;;;;;46.80;29.73;;;3.90;99.90;;;;;;5054107;28;20457;-63
2023/12/06 02:56:01;;;;;;;45.20;27.87;;;3.90;99.90;;;;;;5054021;28;20442;-64
2023/12/06 02:58:28;;;;;;;44.40;29.90;;;3.90;99.90;;;;;;5053810;28;20441;-63
2023/12/06 03:00:56;;;;;;;44.43;28.77;;;3.90;99.90;;;;;;5070329;28;20481;-64
2023/12/06 03:03:22;;;;;;;45.23;28.80;;;3.90;99.90;;;;;;5073147;28;20472;-64
2023/12/06 03:05:49;;;;;;;41.97;27.47;;;3.90;99.90;;;;;;5073169;28;20961;-64
2023/12/06 03:08:16;;;;;;;43.40;29.47;;;3.90;99.90;;;;;;5073229;28;20830;-64
2023/12/06 03:10:43;;;;;;;41.07;28.00;;;3.80;99.90;;;;;;5073417;28;20475;-64
2023/12/06 03:13:10;;;;;;;40.93;27.43;;;3.80;99.90;;;;;;5073398;28;20467;-63
2023/12/06 03:15:36;;;;;;;40.73;28.50;;;3.90;99.90;;;;;;5073312;28;20484;-64
2023/12/06 03:18:04;;;;;;;39.10;29.50;;;3.90;99.90;;;;;;5073217;28;20444;-64
2023/12/06 03:20:31;;;;;;;46.77;30.47;;;3.90;99.90;;;;;;5072756;28;21013;-63
2023/12/06 03:22:58;;;;;;;45.33;29.63;;;3.90;99.90;;;;;;5073364;28;20476;-63
2023/12/06 03:25:24;;;;;;;46.27;29.87;;;3.90;99.90;;;;;;5073334;28;20957;-63
2023/12/06 03:27:51;;;;;;;48.13;27.47;;;3.90;99.90;;;;;;5073247;28;20852;-63
2023/12/06 03:30:18;;;;;;;50.00;28.63;;;3.90;99.90;;;;;;5073163;28;20475;-63
2023/12/06 03:32:45;;;;;;;48.07;30.67;;;3.90;99.90;;;;;;5073132;28;20851;-64
2023/12/06 03:35:13;;;;;;;48.93;30.50;;;3.90;99.90;;;;;;5073015;28;20894;-64
2023/12/06 03:37:39;;;;;;;51.03;29.07;;;3.90;99.90;;;;;;5073114;28;20467;-63
2023/12/06 03:40:07;;;;;;;45.10;28.50;;;3.90;99.90;;;;;;5072962;28;20472;-63
2023/12/06 03:42:34;;;;;;;51.47;31.27;;;4.00;99.90;;;;;;5073137;28;20444;-63
2023/12/06 03:45:01;;;;;;;49.73;31.07;;;4.00;99.90;;;;;;5073091;28;20444;-64
2023/12/06 03:47:27;;;;;;;47.33;29.67;;;4.00;99.90;;;;;;5072755;28;20820;-63
2023/12/06 03:49:54;;;;;;;45.87;29.03;;;4.10;99.90;;;;;;5072962;28;20833;-63
2023/12/06 03:52:22;;;;;;;52.83;30.90;;;4.10;99.90;;;;;;5072950;28;20445;-63
2023/12/06 03:54:50;;;;;;;47.10;29.90;;;4.10;99.90;;;;;;5072880;28;20549;-63
2023/12/06 03:57:16;;;;;;;44.90;29.30;;;4.10;99.90;;;;;;5072670;28;20934;-63
2023/12/06 03:59:43;;;;;;;45.93;29.60;;;4.10;99.90;;;;;;5072845;28;20469;-63
2023/12/06 04:02:10;;;;;;;48.50;29.37;;;4.10;99.90;;;;;;5073252;28;20527;-64
2023/12/06 04:04:36;;;;;;;50.83;30.70;;;4.10;99.90;;;;;;5076736;28;20474;-64
2023/12/06 04:07:03;;;;;;;49.47;29.60;;;4.10;99.90;;;;;;5076686;28;20445;-64
2023/12/06 04:09:31;;;;;;;52.93;28.83;;;4.00;99.90;;;;;;5076572;28;20471;-64
2023/12/06 04:11:58;;;;;;;51.90;29.60;;;4.00;99.90;;;;;;5076527;28;20456;-64
2023/12/06 04:14:25;;;;;;;48.57;29.60;;;4.00;99.90;;;;;;5076598;28;20488;-64
2023/12/06 04:16:52;;;;;;;52.67;29.73;;;4.10;99.90;;;;;;5076579;28;20449;-64
2023/12/06 04:19:19;;;;;;;49.87;28.87;;;4.10;99.90;;;;;;5076277;28;20537;-64
2023/12/06 04:21:45;;;;;;;49.27;30.70;;;4.10;99.90;;;;;;5076316;28;20444;-64
2023/12/06 04:24:12;;;;;;;50.07;29.33;;;4.20;99.90;;;;;;5076303;28;20450;-64
2023/12/06 04:26:40;;;;;;;52.27;29.60;;;4.20;99.90;;;;;;5076204;28;20444;-64
2023/12/06 04:29:07;;;;;;;49.07;28.77;;;4.20;99.90;;;;;;5076085;28;20441;-64
2023/12/06 04:31:35;;;;;;;47.43;28.33;;;4.20;99.90;;;;;;5076068;28;20510;-64
2023/12/06 04:34:03;;;;;;;49.73;29.23;;;4.20;99.90;;;;;;5075846;28;20532;-63
2023/12/06 04:36:29;;;;;;;50.80;28.20;;;4.20;99.90;;;;;;5076251;28;20440;-64
2023/12/06 04:38:56;;;;;;;50.80;30.27;;;4.20;99.90;;;;;;5076077;28;20452;-64
2023/12/06 04:41:23;;;;;;;46.60;29.10;;;4.10;99.90;;;;;;5075996;28;20460;-64
2023/12/06 04:43:50;;;;;;;51.20;28.87;;;4.10;99.90;;;;;;5075671;28;20938;-64
2023/12/06 04:46:18;;;;;;;49.50;29.00;;;4.10;99.90;;;;;;5075897;28;20444;-64
2023/12/06 04:48:44;;;;;;;47.57;28.63;;;4.20;99.90;;;;;;5075760;28;20474;-64
2023/12/06 04:51:12;;;;;;;50.90;31.30;;;4.20;99.90;;;;;;5075659;28;20461;-64
2023/12/06 04:53:38;;;;;;;49.00;28.57;;;4.20;99.90;;;;;;5075650;28;20879;-64
2023/12/06 04:56:05;;;;;;;49.57;29.47;;;4.20;99.90;;;;;;5075715;28;20488;-64
2023/12/06 04:58:32;;;;;;;51.57;32.30;;;4.20;99.90;;;;;;5075702;28;20611;-64
2023/12/06 05:01:00;;;;;;;47.73;29.70;;;4.20;99.90;;;;;;5075245;28;20975;-64
2023/12/06 05:03:27;;;;;;;51.03;29.80;;;4.20;99.90;;;;;;5075330;28;20456;-64
2023/12/06 05:05:53;;;;;;;46.07;28.23;;;4.20;99.90;;;;;;5075563;28;20437;-64
2023/12/06 05:08:20;;;;;;;45.20;27.17;;;4.20;99.90;;;;;;5075599;28;20444;-64
2023/12/06 05:10:47;;;;;;;47.17;28.30;;;4.20;99.90;;;;;;5075430;28;20471;-64
2023/12/06 05:13:14;;;;;;;42.57;26.50;;;4.10;99.90;;;;;;5074743;28;20465;-64
2023/12/06 05:15:40;;;;;;;49.10;28.80;;;4.20;99.90;;;;;;5074920;28;20832;-64
2023/12/06 05:18:08;;;;;;;44.80;28.43;;;4.20;99.90;;;;;;5075471;28;20449;-64
2023/12/06 05:20:36;;;;;;;44.60;27.33;;;4.20;99.90;;;;;;5075158;28;20460;-64
2023/12/06 05:23:03;;;;;;;44.80;27.57;;;4.20;99.90;;;;;;5074884;28;21000;-64
2023/12/06 05:25:31;;;;;;;45.27;28.73;;;4.20;99.90;;;;;;5074833;28;20919;-64
2023/12/06 05:27:59;;;;;;;43.30;28.23;;;4.10;99.90;;;;;;5074736;28;20960;-64
2023/12/06 05:30:26;;;;;;;42.97;27.83;;;4.10;99.90;;;;;;5075071;28;20468;-63
2023/12/06 05:32:52;;;;;;;44.83;29.73;;;4.20;99.90;;;;;;5075048;28;20910;-64
2023/12/06 05:35:20;;;;;;;43.10;28.07;;;4.20;99.90;;;;;;5074833;28;20480;-64
2023/12/06 05:37:47;;;;;;;42.20;29.10;;;4.20;99.90;;;;;;5074638;28;20440;-63
2023/12/06 05:40:14;;;;;;;40.43;27.67;;;4.20;99.90;;;;;;5074829;28;20468;-63
2023/12/06 05:42:40;;;;;;;42.93;29.90;;;4.20;99.90;;;;;;5074827;28;20444;-63
2023/12/06 05:45:09;;;;;;;46.10;30.53;;;4.30;99.90;;;;;;5074794;28;20440;-64
2023/12/06 05:47:35;;;;;;;40.27;26.77;;;4.30;99.90;;;;;;5074790;28;20447;-64
2023/12/06 05:50:03;;;;;;;48.20;27.97;;;4.30;99.90;;;;;;5074416;28;20469;-64
2023/12/06 05:52:31;;;;;;;42.03;27.80;;;4.20;99.90;;;;;;5075012;28;20494;-64
2023/12/06 05:54:59;;;;;;;42.60;29.40;;;4.20;99.90;;;;;;5074658;28;20473;-64
2023/12/06 05:57:28;;;;;;;47.93;30.10;;;4.30;99.90;;;;;;5082275;28;20522;-64
2023/12/06 05:59:55;;;;;;;45.33;29.77;;;4.30;99.90;;;;;;5071013;28;20501;-63
2023/12/06 06:02:21;;;;;;;41.90;28.83;;;4.30;99.90;;;;;;5057386;28;20454;-64
2023/12/06 06:04:48;;;;;;;43.33;29.67;;;4.30;99.90;;;;;;5056028;28;20422;-64
2023/12/06 06:07:15;;;;;;;42.57;29.10;;;4.30;99.90;;;;;;5055176;28;20450;-64
2023/12/06 06:09:43;;;;;;;38.90;28.10;;;4.40;99.90;;;;;;5055090;28;20473;-64
2023/12/06 06:12:10;;;;;;;40.83;28.33;;;4.40;99.90;;;;;;5054673;28;20543;-63
2023/12/06 06:14:36;;;;;;;43.33;27.77;;;4.40;99.90;;;;;;5054553;28;20468;-63
2023/12/06 06:17:03;;;;;;;42.67;29.77;;;4.40;99.90;;;;;;5054346;28;20441;-64
2023/12/06 06:19:30;;;;;;;40.40;27.90;;;4.30;99.90;;;;;;5053783;28;20979;-64
2023/12/06 06:21:56;;;;;;;42.90;29.00;;;4.30;99.90;;;;;;5054276;28;20838;-64
2023/12/06 06:24:23;;;;;;;40.90;28.70;;;4.30;99.90;;;;;;5054166;28;20452;-64
2023/12/06 06:26:51;;;;;;;39.50;29.13;;;4.30;99.90;;;;;;5053380;28;20446;-64
2023/12/06 06:29:17;;;;;;;38.30;27.63;;;4.40;99.90;;;;;;5053915;28;20449;-64
2023/12/06 06:31:43;;;;;;;44.00;27.83;;;4.50;99.90;;;;;;5054006;28;20454;-64
2023/12/06 06:34:10;;;;;;;43.10;28.50;;;4.50;99.90;;;;;;5053896;28;20203;-63
2023/12/06 06:36:37;;;;;;;39.10;27.27;;;4.50;99.90;;;;;;5053787;28;20477;-64
2023/12/06 06:39:04;;;;;;;45.60;28.00;;;4.40;99.90;;;;;;5053838;28;20450;-64
2023/12/06 06:41:30;;;;;;;38.63;27.93;;;4.50;99.90;;;;;;5053782;28;20449;-64
2023/12/06 06:43:58;;;;;;;40.73;28.47;;;4.50;99.90;;;;;;5053731;28;20456;-64
2023/12/06 06:46:25;;;;;;;36.50;27.60;;;4.60;99.90;;;;;;5053768;28;20442;-64
2023/12/06 06:48:52;;;;;;;34.13;25.93;;;4.60;99.90;;;;;;5053927;28;20456;-64
2023/12/06 06:51:18;;;;;;;37.10;26.87;;;4.50;99.90;;;;;;5053857;28;20465;-63
2023/12/06 06:53:45;;;;;;;38.60;26.60;;;4.60;99.90;;;;;;5053698;28;20444;-63
2023/12/06 06:56:12;;;;;;;36.10;25.50;;;4.60;99.90;;;;;;5053109;28;20480;-63
2023/12/06 06:58:38;;;;;;;36.97;24.77;;;4.60;99.90;;;;;;5053123;28;20444;-63
2023/12/06 07:01:06;;;;;;;36.47;25.63;;;4.60;99.90;;;;;;5053397;28;20465;-63
2023/12/06 07:03:35;;;;;;;38.10;26.17;;;4.60;99.90;;;;;;5053095;28;20453;-63
2023/12/06 07:06:02;;;;;;;36.20;26.30;;;4.60;99.90;;;;;;5053379;28;20444;-64
2023/12/06 07:08:29;;;;;;;37.97;28.07;;;4.50;99.90;;;;;;5053148;28;20495;-64
2023/12/06 07:10:56;;;;;;;34.53;25.40;;;4.60;99.90;;;;;;5053345;28;20470;-64
2023/12/06 07:13:23;;;;;;;36.63;27.87;;;4.60;99.90;;;;;;5053171;28;20842;-63
2023/12/06 07:15:50;;;;;;;34.13;25.00;;;4.60;99.90;;;;;;5052806;28;20856;-64
2023/12/06 07:18:18;;;;;;;34.70;26.07;;;4.60;99.90;;;;;;5052896;28;20800;-64
2023/12/06 07:20:45;;;;;;;33.27;25.13;;;4.60;99.90;;;;;;5053245;28;20494;-63
2023/12/06 07:23:12;;;;;;;33.40;25.37;;;4.60;99.90;;;;;;5053156;28;20481;-63
2023/12/06 07:25:38;;;;;;;36.53;27.30;;;4.60;99.90;;;;;;5053314;28;20438;-64
2023/12/06 07:28:05;;;;;;;34.20;25.63;;;4.70;99.90;;;;;;5053050;28;20457;-64
2023/12/06 07:30:32;;;;;;;34.73;26.27;;;4.60;99.90;;;;;;5053154;28;20496;-64
2023/12/06 07:32:59;;;;;;;34.43;27.17;;;4.70;99.90;;;;;;5053277;28;20441;-64
2023/12/06 07:35:27;;;;;;;34.40;24.70;;;4.70;99.90;;;;;;5052812;28;20482;-64
2023/12/06 07:37:54;;;;;;;35.67;27.20;;;4.70;99.90;;;;;;5056136;28;20445;-64
2023/12/06 07:40:21;;;;;;;39.30;27.07;;;4.70;99.90;;;;;;5057062;28;20461;-64
2023/12/06 07:42:48;;;;;;;36.03;25.33;;;4.80;99.90;;;;;;5057782;28;20468;-64
2023/12/06 07:45:15;;;;;;;35.57;26.40;;;4.80;99.90;;;;;;5057034;28;20453;-64
2023/12/06 07:47:42;;;;;;;33.97;26.80;;;4.80;99.90;;;;;;5056923;28;20445;-64
2023/12/06 07:50:10;;;;;;;36.17;26.20;;;4.80;99.90;;;;;;5056414;28;21001;-64
2023/12/06 07:52:39;;;;;;;33.27;26.10;;;4.80;99.90;;;;;;5056800;28;20472;-64
2023/12/06 07:55:07;;;;;;;34.07;24.90;;;4.80;99.90;;;;;;5056591;28;20468;-64
2023/12/06 07:57:33;;;;;;;33.20;24.37;;;4.90;99.90;;;;;;5056454;28;20958;-64
2023/12/06 08:00:00;;;;;;;33.83;27.77;;;4.90;99.90;;;;;;5056335;28;21009;-64
2023/12/06 08:02:27;;;;;;;40.53;26.33;;;4.90;99.90;;;;;;5056216;28;20943;-64
2023/12/06 08:04:54;;;;;;;34.77;26.30;;;4.90;99.90;;;;;;5056681;28;20444;-64
2023/12/06 08:07:22;;;;;;;37.57;25.90;;;4.90;99.90;;;;;;5056506;28;20442;-64
2023/12/06 08:09:52;;;;;;;39.23;26.27;;;4.90;99.90;;;;;;5056399;28;20822;-64
2023/12/06 08:12:19;;;;;;;36.50;26.80;;;4.90;99.90;;;;;;5056570;28;20448;-64
2023/12/06 08:14:45;;;;;;;38.50;26.60;;;5.00;99.90;;;;;;5056305;28;20449;-64
2023/12/06 08:17:12;;;;;;;38.00;26.80;;;5.00;99.90;;;;;;5056376;28;20473;-64
2023/12/06 08:19:39;;;;;;;33.83;26.40;;;5.00;99.90;;;;;;5056335;28;20508;-64
2023/12/06 08:22:06;;;;;;;36.50;27.33;;;5.00;99.90;;;;;;5056123;28;20477;-64
2023/12/06 08:24:34;;;;;;;34.27;25.77;;;5.10;99.90;;;;;;5056386;28;20455;-64
2023/12/06 08:27:02;;;;;;;33.80;25.20;;;5.00;99.90;;;;;;5056230;28;20865;-64
2023/12/06 08:29:30;;;;;;;38.20;27.60;;;5.00;99.90;;;;;;5056312;28;20469;-64
2023/12/06 08:31:57;;;;;;;38.90;27.20;;;5.10;99.90;;;;;;5056257;28;20442;-64
2023/12/06 08:34:24;;;;;;;35.30;27.30;;;5.10;99.90;;;;;;5056041;28;20441;-64
2023/12/06 08:36:51;;;;;;;34.33;26.67;;;5.10;99.90;;;;;;5055845;28;20477;-64
2023/12/06 08:39:18;;;;;;;34.83;26.67;;;5.10;99.90;;;;;;5055958;28;20481;-64
2023/12/06 08:41:45;;;;;;;37.03;27.37;;;5.20;99.90;;;;;;5055988;28;20537;-64
2023/12/06 08:44:13;;;;;;;38.90;27.27;;;5.20;99.90;;;;;;5055896;28;20441;-64
2023/12/06 08:46:42;;;;;;;37.40;27.87;;;5.20;99.90;;;;;;5055835;28;20441;-64
2023/12/06 08:49:08;;;;;;;37.37;26.80;;;5.20;99.90;;;;;;5054324;28;20438;-64
2023/12/06 08:51:35;;;;;;;30.27;24.77;;;5.20;99.90;;;;;;5055784;28;20862;-64
2023/12/06 08:54:02;;;;;;;34.93;26.87;;;5.30;99.90;;;;;;5055596;28;20441;-64
2023/12/06 08:56:28;;;;;;;38.73;27.77;;;5.20;99.90;;;;;;5055474;28;20512;-64
2023/12/06 08:58:55;;;;;;;40.10;28.50;;;5.30;99.90;;;;;;5055404;28;20448;-64
2023/12/06 09:01:23;;;;;;;39.17;27.77;;;5.30;99.90;;;;;;5055469;28;20465;-64
2023/12/06 09:03:50;;;;;;;38.20;27.47;;;5.30;99.90;;;;;;5055267;28;20473;-64
2023/12/06 09:06:17;;;;;;;40.63;28.17;;;5.30;99.90;;;;;;5056192;28;20437;-64
2023/12/06 09:08:44;;;;;;;36.40;27.00;;;5.30;99.90;;;;;;5056448;28;21030;-64
2023/12/06 09:11:10;;;;;;;38.13;26.70;;;5.40;99.90;;;;;;5056639;28;20468;-65
2023/12/06 09:13:37;;;;;;;37.63;25.17;;;5.30;99.90;;;;;;5055577;28;21060;-64
2023/12/06 09:16:06;;;;;;;39.30;26.70;;;5.30;99.90;;;;;;5055629;28;20525;-64
2023/12/06 09:18:34;;;;;;;34.10;25.17;;;5.30;99.90;;;;;;5056108;28;20476;-64
2023/12/06 09:21:03;;;;;;;36.97;26.70;;;5.40;99.90;;;;;;5055916;28;20489;-64
2023/12/06 09:23:29;;;;;;;38.67;27.63;;;5.40;99.90;;;;;;5055194;28;20484;-64
2023/12/06 09:25:56;;;;;;;33.53;25.30;;;5.50;99.90;;;;;;5055464;28;20449;-64
2023/12/06 09:28:23;;;;;;;30.33;24.73;;;5.50;99.90;;;;;;5055028;28;20957;-64
2023/12/06 09:30:50;;;;;;;36.70;23.30;;;5.50;99.90;;;;;;5055193;28;20457;-64
2023/12/06 09:33:16;;;;;;;32.33;24.60;;;5.50;99.90;;;;;;5055280;28;20441;-64
2023/12/06 09:35:44;;;;;;;32.97;25.27;;;5.60;99.90;;;;;;5054836;28;20566;-64
2023/12/06 09:38:12;;;;;;;34.80;26.20;;;5.60;99.90;;;;;;5054653;28;21024;-64
2023/12/06 09:40:38;;;;;;;39.43;27.37;;;5.60;99.90;;;;;;5054870;28;20457;-64
2023/12/06 09:43:05;;;;;;;31.60;24.60;;;5.60;99.90;;;;;;5054903;28;20453;-64
2023/12/06 09:45:32;;;;;;;30.83;24.10;;;5.70;99.90;;;;;;5054785;28;20877;-64
2023/12/06 09:48:01;;;;;;;32.90;24.10;;;5.70;99.90;;;;;;5054491;28;20939;-64
2023/12/06 09:50:28;;;;;;;33.83;23.80;;;5.70;99.90;;;;;;5054442;28;20897;-64
2023/12/06 09:52:56;;;;;;;36.13;24.47;;;5.80;99.90;;;;;;5054704;28;20442;-64
2023/12/06 09:55:24;;;;;;;37.60;24.10;;;5.80;99.90;;;;;;5054497;28;20477;-64
2023/12/06 09:57:52;;;;;;;32.93;23.10;;;5.80;99.90;;;;;;5054342;28;21054;-64
2023/12/06 10:00:19;;;;;;;32.27;23.10;;;5.80;99.90;;;;;;5054394;28;20466;-64
2023/12/06 10:02:53;;;;;;;33.43;22.27;;;5.80;99.90;;;;;;5054369;28;20457;-64
2023/12/06 10:05:20;;;;;;;30.93;22.10;;;5.90;99.90;;;;;;5054517;28;20455;-64
2023/12/06 10:07:47;;;;;;;31.23;22.63;;;6.00;99.90;;;;;;5054313;28;20450;-64
2023/12/06 10:10:16;;;;;;;29.33;22.90;;;6.10;99.90;;;;;;5054751;28;20568;-64
2023/12/06 10:12:47;;;;;;;31.10;23.63;;;6.10;99.90;;;;;;5054580;28;20822;-64
2023/12/06 10:15:15;;;;;;;29.10;22.60;;;6.20;99.90;;;;;;5054439;28;20446;-64
2023/12/06 10:17:42;;;;;;;33.83;23.13;;;6.10;99.90;;;;;;5054096;28;20478;-64
2023/12/06 10:20:09;;;;;;;28.93;22.47;;;6.20;99.90;;;;;;5054083;28;20527;-64
2023/12/06 10:22:36;;;;;;;30.47;21.87;;;6.30;99.90;;;;;;5054009;28;20476;-64
2023/12/06 10:25:05;;;;;;;29.50;20.67;;;6.30;99.90;;;;;;5053997;28;20456;-64
2023/12/06 10:27:34;;;;;;;28.23;22.33;;;6.30;99.90;;;;;;5054006;28;20447;-64
2023/12/06 10:30:01;;;;;;;29.33;21.80;;;6.30;99.90;;;;;;5053905;28;20515;-64
2023/12/06 10:32:30;;;;;;;28.23;23.00;;;6.30;99.90;;;;;;5053662;28;20955;-64
2023/12/06 10:34:59;;;;;;;26.23;20.93;;;6.30;99.90;;;;;;5053520;28;20890;-64
2023/12/06 10:37:28;;;;;;;31.33;21.47;;;6.30;99.90;;;;;;5053627;28;20474;-64
2023/12/06 10:40:00;;;;;;;24.07;19.60;;;6.30;99.90;;;;;;5053712;28;20470;-64
2023/12/06 10:42:35;;;;;;;26.63;21.20;;;6.30;99.90;;;;;;5053668;28;20525;-64
2023/12/06 10:45:02;;;;;;;26.93;20.50;;;6.40;99.90;;;;;;5053763;28;20425;-64
2023/12/06 10:47:30;;;;;;;31.53;20.80;;;6.40;99.90;;;;;;5053654;28;20491;-64
2023/12/06 10:49:57;;;;;;;28.97;20.83;;;6.40;99.90;;;;;;5053206;28;20987;-64
2023/12/06 10:52:25;;;;;;;25.63;19.43;;;6.40;99.90;;;;;;5053504;28;20438;-64
2023/12/06 10:54:54;;;;;;;31.47;19.20;;;6.50;99.90;;;;;;5053212;28;20452;-64
2023/12/06 10:57:20;;;;;;;30.40;20.40;;;6.60;99.90;;;;;;5053326;28;20857;-64
2023/12/06 10:59:49;;;;;;;28.50;20.30;;;6.70;99.90;;;;;;5053366;28;20461;-64
2023/12/06 11:02:17;;;;;;;32.07;20.00;;;6.80;99.90;;;;;;5054001;28;20499;-64
2023/12/06 11:04:49;;;;;;;33.67;19.83;;;6.90;99.90;;;;;;5053416;28;20430;-64
2023/12/06 11:07:28;;;;;;;27.10;18.80;;;7.00;99.90;;;;;;5053348;28;20807;-64
2023/12/06 11:10:08;;;;;;;30.60;19.70;;;7.00;99.90;;;;;;5053324;28;20457;-64
2023/12/06 11:12:50;;;;;;;23.93;19.67;;;7.10;99.90;;;;;;5052916;28;20445;-64
2023/12/06 11:15:34;;;;;;;24.20;18.43;;;7.10;99.90;;;;;;5052914;28;20433;-64
2023/12/06 11:18:11;;;;;;;32.00;20.07;;;7.20;99.90;;;;;;5053150;28;20468;-64
2023/12/06 11:20:39;;;;;;;28.20;19.63;;;7.10;99.90;;;;;;5053857;28;20472;-64
2023/12/06 11:23:06;;;;;;;25.50;19.60;;;7.20;99.90;;;;;;5053250;28;20442;-64
2023/12/06 11:25:33;;;;;;;24.20;19.47;;;7.20;99.90;;;;;;5053351;28;20453;-64
2023/12/06 11:28:01;;;;;;;23.37;19.90;;;7.30;99.90;;;;;;5053345;28;20442;-64
2023/12/06 11:30:29;;;;;;;26.27;18.37;;;7.40;99.90;;;;;;5052746;28;20971;-64
2023/12/06 11:32:58;;;;;;;28.00;19.37;;;7.50;99.90;;;;;;5053249;28;20528;-64
2023/12/06 11:35:25;;;;;;;21.13;18.63;;;7.50;99.90;;;;;;5053244;28;20480;-64
2023/12/06 11:37:53;;;;;;;27.17;19.83;;;7.60;99.90;;;;;;5052948;28;20477;-64
2023/12/06 11:40:23;;;;;;;23.17;17.97;;;7.70;99.90;;;;;;5052885;28;20523;-64
2023/12/06 11:42:56;;;;;;;23.17;17.77;;;7.80;99.90;;;;;;5053047;28;20464;-64
2023/12/06 11:45:25;;;;;;;27.30;18.60;;;7.80;99.90;;;;;;5052994;28;20465;-64
2023/12/06 11:47:53;;;;;;;23.03;17.67;;;7.80;99.90;;;;;;5052948;28;20469;-64
2023/12/06 11:50:21;;;;;;;22.83;18.60;;;7.80;99.90;;;;;;5052867;28;20465;-64
2023/12/06 11:52:49;;;;;;;24.07;16.93;;;8.00;99.90;;;;;;5052628;28;20947;-64
2023/12/06 11:55:17;;;;;;;21.90;16.03;;;8.00;99.90;;;;;;5052768;28;20866;-64
2023/12/06 11:58:04;;;;;;;21.23;17.80;;;8.20;99.90;;;;;;5052673;28;20494;-64
2023/12/06 12:00:31;;;;;;;23.80;17.53;;;8.40;99.90;;;;;;5065909;28;21055;-64
2023/12/06 12:03:00;;;;;;;17.30;15.13;;;8.50;99.90;;;;;;5072605;28;20460;-64
2023/12/06 12:05:27;;;;;;;17.83;15.03;;;8.50;99.90;;;;;;5072875;28;20445;-65
2023/12/06 12:07:54;;;;;;;18.97;14.60;;;8.60;99.90;;;;;;5072910;28;20494;-64
2023/12/06 12:10:21;;;;;;;19.17;13.47;;;8.50;99.90;;;;;;5073053;28;20473;-64
2023/12/06 12:12:49;;;;;;;19.07;12.83;;;8.50;99.30;;;;;;5074592;28;20441;-64
2023/12/06 12:15:16;;;;;;;17.30;13.33;;;8.30;98.10;;;;;;5074285;28;20506;-64
2023/12/06 12:17:44;;;;;;;18.27;14.10;;;8.10;98.70;;;;;;5073611;28;20516;-64
2023/12/06 12:20:13;;;;;;;16.97;13.83;;;8.00;99.60;;;;;;5073051;28;20464;-64
2023/12/06 12:22:47;;;;;;;19.20;16.07;;;8.00;99.90;;;;;;5073482;28;20440;-64
2023/12/06 12:25:15;;;;;;;17.20;14.77;;;7.90;99.90;;;;;;5076913;28;20448;-64
2023/12/06 12:27:44;;;;;;;16.27;13.33;;;8.00;99.90;;;;;;5076832;28;20480;-64
2023/12/06 12:30:12;;;;;;;18.93;13.33;;;8.20;99.90;;;;;;5077442;28;20466;-64
2023/12/06 12:32:41;;;;;;;14.47;12.27;;;8.60;99.90;;;;;;5078173;28;20905;-64
2023/12/06 12:35:10;;;;;;;17.90;13.20;;;9.00;98.80;;;;;;5077708;28;20440;-64
2023/12/06 12:37:38;;;;;;;11.97;10.37;;;9.30;97.00;;;;;;5076489;28;20927;-64